sensor_id;sensor_type;location;lat;lon;timestamp;pressure;altitude;pressure_sealevel;temperature;humidity
74675;BME280;63200;48.810;12.352;2022-12-05T00:00:04;97207.94;;;2.81;83.77
74675;BME280;63200;48.810;12.352;2022-12-05T00:02:29;97207.69;;;2.82;83.99
74675;BME280;63200;48.810;12.352;2022-12-05T00:04:55;97214.34;;;2.80;84.12
74675;BME280;63200;48.810;12.352;2022-12-05T00:07:20;97207.41;;;2.67;83.53
74675;BME280;63200;48.810;12.352;2022-12-05T00:09:45;97171.63;;;2.44;83.63
74675;BME280;63200;48.810;12.352;2022-12-05T00:12:11;97180.34;;;2.52;83.97
74675;BME280;63200;48.810;12.352;2022-12-05T00:14:36;97208.19;;;2.50;84.43
74675;BME280;63200;48.810;12.352;2022-12-05T00:17:02;97225.56;;;2.77;83.95
74675;BME280;63200;48.810;12.352;2022-12-05T00:19:27;97234.59;;;2.88;83.63
74675;BME280;63200;48.810;12.352;2022-12-05T00:21:52;97234.84;;;2.86;83.69
74675;BME280;63200;48.810;12.352;2022-12-05T00:24:18;97226.78;;;2.86;83.30
74675;BME280;63200;48.810;12.352;2022-12-05T00:26:44;97232.63;;;2.83;83.80
74675;BME280;63200;48.810;12.352;2022-12-05T00:29:09;97225.31;;;2.78;83.38
74675;BME280;63200;48.810;12.352;2022-12-05T00:31:35;97236.75;;;2.74;83.71
74675;BME280;63200;48.810;12.352;2022-12-05T00:34:01;97246.41;;;2.75;83.41
74675;BME280;63200;48.810;12.352;2022-12-05T00:36:29;97196.09;;;2.48;83.72
74675;BME280;63200;48.810;12.352;2022-12-05T00:38:58;97209.69;;;2.58;83.49
74675;BME280;63200;48.810;12.352;2022-12-05T00:41:25;97228.84;;;2.67;83.84
74675;BME280;63200;48.810;12.352;2022-12-05T00:43:51;97240.34;;;2.79;83.17
74675;BME280;63200;48.810;12.352;2022-12-05T00:46:20;97230.44;;;2.80;83.64
74675;BME280;63200;48.810;12.352;2022-12-05T00:48:46;97206.56;;;2.49;83.33
74675;BME280;63200;48.810;12.352;2022-12-05T00:51:19;97249.69;;;2.77;83.49
74675;BME280;63200;48.810;12.352;2022-12-05T00:53:46;97256.59;;;2.73;83.15
74675;BME280;63200;48.810;12.352;2022-12-05T00:56:17;97234.94;;;2.62;83.42
74675;BME280;63200;48.810;12.352;2022-12-05T00:58:43;97252.94;;;2.79;83.53
74675;BME280;63200;48.810;12.352;2022-12-05T01:01:12;97251.97;;;2.85;82.86
74675;BME280;63200;48.810;12.352;2022-12-05T01:03:38;97255.56;;;2.91;83.06
74675;BME280;63200;48.810;12.352;2022-12-05T01:06:04;97215.84;;;2.59;82.82
74675;BME280;63200;48.810;12.352;2022-12-05T01:08:31;97267.31;;;2.90;83.10
74675;BME280;63200;48.810;12.352;2022-12-05T01:10:57;97220.16;;;2.60;82.74
74675;BME280;63200;48.810;12.352;2022-12-05T01:13:24;97255.47;;;2.86;82.60
74675;BME280;63200;48.810;12.352;2022-12-05T01:15:49;97266.44;;;2.84;83.01
74675;BME280;63200;48.810;12.352;2022-12-05T01:18:16;97264.00;;;2.82;82.51
74675;BME280;63200;48.810;12.352;2022-12-05T01:20:41;97271.00;;;2.83;82.47
74675;BME280;63200;48.810;12.352;2022-12-05T01:23:07;97255.78;;;2.60;82.67
74675;BME280;63200;48.810;12.352;2022-12-05T01:25:33;97285.44;;;2.82;82.91
74675;BME280;63200;48.810;12.352;2022-12-05T01:27:59;97286.97;;;2.78;82.68
74675;BME280;63200;48.810;12.352;2022-12-05T01:30:24;97283.44;;;2.61;82.59
74675;BME280;63200;48.810;12.352;2022-12-05T01:32:50;97298.31;;;2.69;82.43
74675;BME280;63200;48.810;12.352;2022-12-05T01:35:15;97288.34;;;2.52;82.91
74675;BME280;63200;48.810;12.352;2022-12-05T01:37:41;97308.69;;;2.65;83.08
74675;BME280;63200;48.810;12.352;2022-12-05T01:40:07;97305.19;;;2.64;82.57
74675;BME280;63200;48.810;12.352;2022-12-05T01:42:33;97314.75;;;2.60;83.06
74675;BME280;63200;48.810;12.352;2022-12-05T01:45:02;97304.16;;;2.65;82.50
74675;BME280;63200;48.810;12.352;2022-12-05T01:47:29;97300.66;;;2.65;82.10
74675;BME280;63200;48.810;12.352;2022-12-05T01:49:56;97311.38;;;2.65;82.37
74675;BME280;63200;48.810;12.352;2022-12-05T01:52:24;97325.47;;;2.60;82.57
74675;BME280;63200;48.810;12.352;2022-12-05T01:54:54;97333.63;;;2.65;83.12
74675;BME280;63200;48.810;12.352;2022-12-05T01:57:21;97336.19;;;2.60;82.51
74675;BME280;63200;48.810;12.352;2022-12-05T01:59:49;97347.06;;;2.54;82.56
74675;BME280;63200;48.810;12.352;2022-12-05T02:02:16;97305.28;;;2.29;83.29
74675;BME280;63200;48.810;12.352;2022-12-05T02:05:06;97331.56;;;2.56;82.81
74675;BME280;63200;48.810;12.352;2022-12-05T02:07:33;97313.25;;;2.53;82.75
74675;BME280;63200;48.810;12.352;2022-12-05T02:10:00;97328.50;;;2.64;82.33
74675;BME280;63200;48.810;12.352;2022-12-05T02:12:26;97306.19;;;2.46;82.74
74675;BME280;63200;48.810;12.352;2022-12-05T02:23:31;97321.34;;;2.81;81.97
74675;BME280;63200;48.810;12.352;2022-12-05T02:29:13;97325.44;;;2.72;81.62
74675;BME280;63200;48.810;12.352;2022-12-05T02:31:55;97329.75;;;2.73;81.71
74675;BME280;63200;48.810;12.352;2022-12-05T02:42:18;97355.19;;;2.71;81.94
74675;BME280;63200;48.810;12.352;2022-12-05T02:44:53;97352.16;;;2.67;82.10
74675;BME280;63200;48.810;12.352;2022-12-05T02:47:24;97376.88;;;2.69;81.66
74675;BME280;63200;48.810;12.352;2022-12-05T02:49:52;97326.81;;;2.22;82.00
74675;BME280;63200;48.810;12.352;2022-12-05T02:52:18;97352.06;;;2.50;82.66
74675;BME280;63200;48.810;12.352;2022-12-05T02:54:45;97338.09;;;2.48;82.45
74675;BME280;63200;48.810;12.352;2022-12-05T02:57:13;97356.06;;;2.47;82.39
74675;BME280;63200;48.810;12.352;2022-12-05T02:59:39;97342.19;;;2.27;82.71
74675;BME280;63200;48.810;12.352;2022-12-05T03:02:07;97376.53;;;2.42;82.55
74675;BME280;63200;48.810;12.352;2022-12-05T03:04:33;97373.28;;;2.40;82.75
74675;BME280;63200;48.810;12.352;2022-12-05T03:07:02;97367.56;;;2.48;82.86
74675;BME280;63200;48.810;12.352;2022-12-05T03:12:52;97367.81;;;2.35;82.71
74675;BME280;63200;48.810;12.352;2022-12-05T03:15:03;97395.78;;;2.39;82.72
74675;BME280;63200;48.810;12.352;2022-12-05T03:21:32;97412.53;;;2.46;82.29
74675;BME280;63200;48.810;12.352;2022-12-05T03:23:42;97382.25;;;2.33;82.32
74675;BME280;63200;48.810;12.352;2022-12-05T03:29:21;97401.13;;;2.39;82.66
74675;BME280;63200;48.810;12.352;2022-12-05T03:32:01;97393.56;;;2.47;81.86
74675;BME280;63200;48.810;12.352;2022-12-05T03:34:49;97399.50;;;2.49;82.18
74675;BME280;63200;48.810;12.352;2022-12-05T03:40:07;97397.97;;;2.54;82.03
74675;BME280;63200;48.810;12.352;2022-12-05T03:42:40;97384.13;;;2.21;82.23
74675;BME280;63200;48.810;12.352;2022-12-05T03:45:10;97393.22;;;2.20;82.71
74675;BME280;63200;48.810;12.352;2022-12-05T03:47:39;97400.78;;;2.23;82.33
74675;BME280;63200;48.810;12.352;2022-12-05T03:50:21;97372.25;;;2.05;82.24
74675;BME280;63200;48.810;12.352;2022-12-05T03:52:54;97413.00;;;2.43;81.97
74675;BME280;63200;48.810;12.352;2022-12-05T03:55:22;97410.34;;;2.43;81.83
74675;BME280;63200;48.810;12.352;2022-12-05T03:57:52;97417.69;;;2.47;81.38
74675;BME280;63200;48.810;12.352;2022-12-05T04:00:20;97419.66;;;2.40;81.88
74675;BME280;63200;48.810;12.352;2022-12-05T04:02:51;97407.28;;;2.39;81.69
74675;BME280;63200;48.810;12.352;2022-12-05T04:05:23;97421.53;;;2.40;81.56
74675;BME280;63200;48.810;12.352;2022-12-05T04:07:58;97421.16;;;2.48;81.21
74675;BME280;63200;48.810;12.352;2022-12-05T04:10:28;97433.75;;;2.47;81.03
74675;BME280;63200;48.810;12.352;2022-12-05T04:12:59;97438.41;;;2.52;81.28
74675;BME280;63200;48.810;12.352;2022-12-05T04:15:44;97442.13;;;2.27;81.62
74675;BME280;63200;48.810;12.352;2022-12-05T04:18:31;97443.16;;;2.03;81.69
74675;BME280;63200;48.810;12.352;2022-12-05T04:20:57;97440.59;;;2.20;81.66
74675;BME280;63200;48.810;12.352;2022-12-05T04:23:46;97461.69;;;2.28;82.25
74675;BME280;63200;48.810;12.352;2022-12-05T04:26:32;97453.19;;;2.31;81.95
74675;BME280;63200;48.810;12.352;2022-12-05T04:29:06;97453.91;;;2.26;81.47
74675;BME280;63200;48.810;12.352;2022-12-05T04:31:41;97455.97;;;2.24;81.54
74675;BME280;63200;48.810;12.352;2022-12-05T04:34:10;97462.16;;;2.25;81.52
74675;BME280;63200;48.810;12.352;2022-12-05T04:37:22;97473.34;;;2.33;81.55
74675;BME280;63200;48.810;12.352;2022-12-05T04:39:40;97471.25;;;2.24;80.90
74675;BME280;63200;48.810;12.352;2022-12-05T04:42:12;97450.34;;;2.02;81.42
74675;BME280;63200;48.810;12.352;2022-12-05T04:44:48;97470.88;;;2.08;81.45
74675;BME280;63200;48.810;12.352;2022-12-05T04:47:16;97480.41;;;2.04;81.54
74675;BME280;63200;48.810;12.352;2022-12-05T04:49:44;97481.81;;;2.07;80.90
74675;BME280;63200;48.810;12.352;2022-12-05T04:52:11;97494.00;;;1.91;81.51
74675;BME280;63200;48.810;12.352;2022-12-05T04:54:47;97495.69;;;1.85;81.61
74675;BME280;63200;48.810;12.352;2022-12-05T04:57:18;97508.03;;;1.86;81.70
74675;BME280;63200;48.810;12.352;2022-12-05T04:59:45;97482.47;;;1.60;81.73
74675;BME280;63200;48.810;12.352;2022-12-05T05:02:13;97503.88;;;1.90;81.58
74675;BME280;63200;48.810;12.352;2022-12-05T05:04:48;97488.59;;;1.79;81.27
74675;BME280;63200;48.810;12.352;2022-12-05T05:07:16;97482.03;;;1.63;81.39
74675;BME280;63200;48.810;12.352;2022-12-05T05:09:42;97488.28;;;1.57;81.56
74675;BME280;63200;48.810;12.352;2022-12-05T05:12:08;97500.66;;;1.70;81.81
74675;BME280;63200;48.810;12.352;2022-12-05T05:14:33;97512.56;;;1.74;81.28
74675;BME280;63200;48.810;12.352;2022-12-05T05:16:59;97510.25;;;1.77;81.19
74675;BME280;63200;48.810;12.352;2022-12-05T05:19:24;97511.59;;;1.68;81.53
74675;BME280;63200;48.810;12.352;2022-12-05T05:21:50;97507.78;;;1.76;81.61
74675;BME280;63200;48.810;12.352;2022-12-05T05:24:16;97468.47;;;1.46;81.04
74675;BME280;63200;48.810;12.352;2022-12-05T05:26:44;97511.16;;;1.71;81.09
74675;BME280;63200;48.810;12.352;2022-12-05T05:29:10;97521.38;;;1.74;81.05
74675;BME280;63200;48.810;12.352;2022-12-05T05:31:37;97513.91;;;1.64;81.77
74675;BME280;63200;48.810;12.352;2022-12-05T05:34:04;97513.34;;;1.74;81.51
74675;BME280;63200;48.810;12.352;2022-12-05T05:36:29;97516.88;;;1.75;81.21
74675;BME280;63200;48.810;12.352;2022-12-05T05:38:57;97513.31;;;1.62;80.74
74675;BME280;63200;48.810;12.352;2022-12-05T05:41:25;97504.50;;;1.43;81.00
74675;BME280;63200;48.810;12.352;2022-12-05T05:43:51;97493.06;;;1.36;81.30
74675;BME280;63200;48.810;12.352;2022-12-05T05:46:19;97505.59;;;1.54;81.26
74675;BME280;63200;48.810;12.352;2022-12-05T05:48:45;97515.69;;;1.52;80.78
74675;BME280;63200;48.810;12.352;2022-12-05T05:51:11;97481.84;;;1.46;80.82
74675;BME280;63200;48.810;12.352;2022-12-05T05:53:37;97501.13;;;1.48;80.60
74675;BME280;63200;48.810;12.352;2022-12-05T05:56:04;97506.94;;;1.45;80.95
74675;BME280;63200;48.810;12.352;2022-12-05T05:58:30;97524.41;;;1.47;80.72
74675;BME280;63200;48.810;12.352;2022-12-05T06:01:11;97523.81;;;1.45;81.09
74675;BME280;63200;48.810;12.352;2022-12-05T06:03:37;97519.22;;;1.34;81.84
74675;BME280;63200;48.810;12.352;2022-12-05T06:06:05;97518.19;;;1.35;81.59
74675;BME280;63200;48.810;12.352;2022-12-05T06:08:33;97527.47;;;1.32;81.88
74675;BME280;63200;48.810;12.352;2022-12-05T06:11:06;97532.97;;;1.38;81.47
74675;BME280;63200;48.810;12.352;2022-12-05T06:13:32;97541.28;;;1.48;81.83
74675;BME280;63200;48.810;12.352;2022-12-05T06:15:57;97519.81;;;1.17;81.45
74675;BME280;63200;48.810;12.352;2022-12-05T06:18:22;97548.19;;;1.37;81.49
74675;BME280;63200;48.810;12.352;2022-12-05T06:20:52;97552.19;;;1.46;80.97
74675;BME280;63200;48.810;12.352;2022-12-05T06:23:18;97539.84;;;1.45;80.59
74675;BME280;63200;48.810;12.352;2022-12-05T06:25:47;97547.97;;;1.39;80.67
74675;BME280;63200;48.810;12.352;2022-12-05T06:28:13;97535.78;;;1.43;80.68
74675;BME280;63200;48.810;12.352;2022-12-05T06:30:39;97488.47;;;1.06;80.75
74675;BME280;63200;48.810;12.352;2022-12-05T06:33:04;97560.75;;;1.37;80.70
74675;BME280;63200;48.810;12.352;2022-12-05T06:35:29;97540.53;;;1.22;81.28
74675;BME280;63200;48.810;12.352;2022-12-05T06:37:55;97555.41;;;1.18;81.73
74675;BME280;63200;48.810;12.352;2022-12-05T06:40:20;97574.72;;;1.39;81.16
74675;BME280;63200;48.810;12.352;2022-12-05T06:42:46;97579.84;;;1.40;81.25
74675;BME280;63200;48.810;12.352;2022-12-05T06:45:11;97571.69;;;1.54;80.66
74675;BME280;63200;48.810;12.352;2022-12-05T06:47:36;97574.22;;;1.48;81.21
74675;BME280;63200;48.810;12.352;2022-12-05T06:50:02;97581.47;;;1.60;80.83
74675;BME280;63200;48.810;12.352;2022-12-05T06:52:28;97573.84;;;1.45;80.59
74675;BME280;63200;48.810;12.352;2022-12-05T06:54:53;97588.94;;;1.39;80.97
74675;BME280;63200;48.810;12.352;2022-12-05T06:57:18;97554.56;;;1.17;81.27
74675;BME280;63200;48.810;12.352;2022-12-05T06:59:44;97583.72;;;1.26;81.33
74675;BME280;63200;48.810;12.352;2022-12-05T07:02:11;97597.66;;;1.28;81.68
74675;BME280;63200;48.810;12.352;2022-12-05T07:04:37;97600.13;;;1.29;81.76
74675;BME280;63200;48.810;12.352;2022-12-05T07:07:02;97599.84;;;1.19;81.93
74675;BME280;63200;48.810;12.352;2022-12-05T07:09:27;97597.44;;;1.29;81.94
74675;BME280;63200;48.810;12.352;2022-12-05T07:12:22;97591.66;;;1.14;81.46
74675;BME280;63200;48.810;12.352;2022-12-05T07:14:47;97602.63;;;1.24;81.32
74675;BME280;63200;48.810;12.352;2022-12-05T07:17:13;97595.50;;;0.99;81.60
74675;BME280;63200;48.810;12.352;2022-12-05T07:19:38;97618.31;;;1.21;81.43
74675;BME280;63200;48.810;12.352;2022-12-05T07:22:03;97621.81;;;1.21;81.86
74675;BME280;63200;48.810;12.352;2022-12-05T07:24:29;97636.72;;;1.10;81.74
74675;BME280;63200;48.810;12.352;2022-12-05T07:26:54;97648.63;;;1.14;82.46
74675;BME280;63200;48.810;12.352;2022-12-05T07:29:20;97639.56;;;1.15;82.21
74675;BME280;63200;48.810;12.352;2022-12-05T07:31:45;97629.66;;;1.16;81.86
74675;BME280;63200;48.810;12.352;2022-12-05T07:34:11;97652.97;;;1.34;81.40
74675;BME280;63200;48.810;12.352;2022-12-05T07:36:36;97611.06;;;1.03;81.15
74675;BME280;63200;48.810;12.352;2022-12-05T07:39:02;97660.69;;;1.42;80.74
74675;BME280;63200;48.810;12.352;2022-12-05T07:41:30;97651.88;;;1.42;80.93
74675;BME280;63200;48.810;12.352;2022-12-05T07:43:57;97652.84;;;1.47;80.49
74675;BME280;63200;48.810;12.352;2022-12-05T07:46:23;97606.34;;;1.05;80.64
74675;BME280;63200;48.810;12.352;2022-12-05T07:48:49;97675.06;;;1.23;80.17
74675;BME280;63200;48.810;12.352;2022-12-05T07:51:15;97646.00;;;1.08;80.79
74675;BME280;63200;48.810;12.352;2022-12-05T07:53:40;97637.06;;;0.95;81.05
74675;BME280;63200;48.810;12.352;2022-12-05T07:56:08;97685.44;;;1.12;81.70
74675;BME280;63200;48.810;12.352;2022-12-05T07:58:35;97665.97;;;1.05;81.53
74675;BME280;63200;48.810;12.352;2022-12-05T08:01:08;97596.81;;;0.65;81.20
74675;BME280;63200;48.810;12.352;2022-12-05T08:03:35;97678.78;;;1.22;81.63
74675;BME280;63200;48.810;12.352;2022-12-05T08:06:08;97683.25;;;1.28;81.45
74675;BME280;63200;48.810;12.352;2022-12-05T08:08:34;97682.19;;;1.10;80.84
74675;BME280;63200;48.810;12.352;2022-12-05T08:11:13;97688.22;;;0.99;80.89
74675;BME280;63200;48.810;12.352;2022-12-05T08:13:39;97683.31;;;0.96;80.68
74675;BME280;63200;48.810;12.352;2022-12-05T08:16:08;97693.47;;;1.12;81.04
74675;BME280;63200;48.810;12.352;2022-12-05T08:18:35;97685.50;;;1.06;81.03
74675;BME280;63200;48.810;12.352;2022-12-05T08:21:02;97699.31;;;1.28;80.85
74675;BME280;63200;48.810;12.352;2022-12-05T08:23:29;97693.25;;;1.39;80.63
74675;BME280;63200;48.810;12.352;2022-12-05T08:25:55;97668.31;;;0.95;80.09
74675;BME280;63200;48.810;12.352;2022-12-05T08:28:20;97650.09;;;0.85;81.01
74675;BME280;63200;48.810;12.352;2022-12-05T08:30:45;97708.63;;;1.19;80.68
74675;BME280;63200;48.810;12.352;2022-12-05T08:33:11;97706.41;;;1.15;80.59
74675;BME280;63200;48.810;12.352;2022-12-05T08:35:36;97689.06;;;0.99;80.35
74675;BME280;63200;48.810;12.352;2022-12-05T08:38:02;97695.00;;;1.02;81.30
74675;BME280;63200;48.810;12.352;2022-12-05T08:40:27;97689.06;;;0.99;81.00
74675;BME280;63200;48.810;12.352;2022-12-05T08:42:53;97688.13;;;1.12;81.01
74675;BME280;63200;48.810;12.352;2022-12-05T08:45:18;97695.03;;;1.20;80.43
74675;BME280;63200;48.810;12.352;2022-12-05T08:47:43;97698.84;;;1.31;80.26
74675;BME280;63200;48.810;12.352;2022-12-05T08:50:09;97703.41;;;1.30;80.36
74675;BME280;63200;48.810;12.352;2022-12-05T08:52:34;97667.09;;;1.16;80.64
74675;BME280;63200;48.810;12.352;2022-12-05T08:54:59;97675.69;;;1.25;80.58
74675;BME280;63200;48.810;12.352;2022-12-05T08:57:25;97702.84;;;1.47;80.39
74675;BME280;63200;48.810;12.352;2022-12-05T08:59:50;97708.03;;;1.42;80.20
74675;BME280;63200;48.810;12.352;2022-12-05T09:02:15;97686.91;;;1.33;80.19
74675;BME280;63200;48.810;12.352;2022-12-05T09:04:41;97701.31;;;1.58;80.21
74675;BME280;63200;48.810;12.352;2022-12-05T09:07:06;97705.56;;;1.65;79.76
74675;BME280;63200;48.810;12.352;2022-12-05T09:09:32;97701.97;;;1.72;80.15
74675;BME280;63200;48.810;12.352;2022-12-05T09:11:58;97705.09;;;1.69;79.73
74675;BME280;63200;48.810;12.352;2022-12-05T09:14:24;97707.47;;;1.58;80.15
74675;BME280;63200;48.810;12.352;2022-12-05T09:16:50;97706.72;;;1.51;79.82
74675;BME280;63200;48.810;12.352;2022-12-05T09:19:19;97670.72;;;1.28;80.07
74675;BME280;63200;48.810;12.352;2022-12-05T09:21:49;97676.84;;;1.54;80.02
74675;BME280;63200;48.810;12.352;2022-12-05T09:24:14;97676.78;;;1.61;79.72
74675;BME280;63200;48.810;12.352;2022-12-05T09:26:40;97696.28;;;1.68;78.89
74675;BME280;63200;48.810;12.352;2022-12-05T09:29:06;97705.03;;;1.75;79.26
74675;BME280;63200;48.810;12.352;2022-12-05T09:31:31;97678.56;;;1.67;79.23
74675;BME280;63200;48.810;12.352;2022-12-05T09:33:57;97664.97;;;1.69;79.16
74675;BME280;63200;48.810;12.352;2022-12-05T09:36:25;97704.59;;;1.97;78.37
74675;BME280;63200;48.810;12.352;2022-12-05T09:38:52;97703.72;;;2.03;79.17
74675;BME280;63200;48.810;12.352;2022-12-05T09:50:27;97706.53;;;2.08;79.19
74675;BME280;63200;48.810;12.352;2022-12-05T09:55:54;97704.97;;;2.00;78.77
74675;BME280;63200;48.810;12.352;2022-12-05T09:58:37;97703.31;;;2.18;79.03
74675;BME280;63200;48.810;12.352;2022-12-05T10:06:42;97706.22;;;2.16;78.36
74675;BME280;63200;48.810;12.352;2022-12-05T10:09:37;97708.31;;;2.14;78.13
74675;BME280;63200;48.810;12.352;2022-12-05T10:12:16;97686.53;;;1.74;79.09
74675;BME280;63200;48.810;12.352;2022-12-05T10:15:03;97714.94;;;1.93;78.67
74675;BME280;63200;48.810;12.352;2022-12-05T10:17:40;97688.03;;;1.88;79.37
74675;BME280;63200;48.810;12.352;2022-12-05T10:20:16;97708.69;;;1.99;78.58
74675;BME280;63200;48.810;12.352;2022-12-05T10:22:46;97675.66;;;1.69;79.04
74675;BME280;63200;48.810;12.352;2022-12-05T10:25:13;97713.59;;;1.84;78.69
74675;BME280;63200;48.810;12.352;2022-12-05T10:27:46;97693.00;;;1.85;79.57
74675;BME280;63200;48.810;12.352;2022-12-05T10:30:15;97699.09;;;1.92;79.18
74675;BME280;63200;48.810;12.352;2022-12-05T10:37:46;97708.03;;;1.86;79.37
74675;BME280;63200;48.810;12.352;2022-12-05T10:40:12;97707.41;;;1.83;79.43
74675;BME280;63200;48.810;12.352;2022-12-05T10:42:38;97695.69;;;1.85;79.83
74675;BME280;63200;48.810;12.352;2022-12-05T10:45:06;97699.31;;;1.90;79.50
74675;BME280;63200;48.810;12.352;2022-12-05T10:47:32;97703.84;;;1.90;79.36
74675;BME280;63200;48.810;12.352;2022-12-05T10:50:03;97698.56;;;2.02;79.45
74675;BME280;63200;48.810;12.352;2022-12-05T10:52:29;97693.53;;;1.93;78.59
74675;BME280;63200;48.810;12.352;2022-12-05T10:55:04;97691.44;;;1.95;79.77
74675;BME280;63200;48.810;12.352;2022-12-05T10:57:30;97655.75;;;1.83;79.26
74675;BME280;63200;48.810;12.352;2022-12-05T10:59:56;97679.69;;;1.96;79.10
74675;BME280;63200;48.810;12.352;2022-12-05T11:04:47;97684.34;;;2.38;79.41
74675;BME280;63200;48.810;12.352;2022-12-05T11:07:34;97683.59;;;2.61;78.30
74675;BME280;63200;48.810;12.352;2022-12-05T11:10:03;97676.81;;;2.59;77.78
74675;BME280;63200;48.810;12.352;2022-12-05T11:12:42;97669.56;;;2.78;77.31
74675;BME280;63200;48.810;12.352;2022-12-05T11:17:47;97674.03;;;2.65;77.77
74675;BME280;63200;48.810;12.352;2022-12-05T11:22:49;97665.28;;;2.58;77.54
74675;BME280;63200;48.810;12.352;2022-12-05T11:27:53;97667.50;;;2.61;77.61
74675;BME280;63200;48.810;12.352;2022-12-05T11:30:20;97662.66;;;2.70;76.42
74675;BME280;63200;48.810;12.352;2022-12-05T11:32:46;97674.13;;;3.01;76.36
74675;BME280;63200;48.810;12.352;2022-12-05T11:37:42;97664.78;;;2.92;76.37
74675;BME280;63200;48.810;12.352;2022-12-05T11:45:58;97679.44;;;2.77;76.52
74675;BME280;63200;48.810;12.352;2022-12-05T11:52:00;97687.06;;;2.92;76.42
74675;BME280;63200;48.810;12.352;2022-12-05T11:57:30;97657.53;;;2.69;76.62
74675;BME280;63200;48.810;12.352;2022-12-05T12:00:11;97682.69;;;2.67;75.81
74675;BME280;63200;48.810;12.352;2022-12-05T12:10:46;97674.59;;;2.98;76.09
74675;BME280;63200;48.810;12.352;2022-12-05T12:21:23;97674.03;;;3.08;75.89
74675;BME280;63200;48.810;12.352;2022-12-05T12:30:05;97675.19;;;3.12;76.18
74675;BME280;63200;48.810;12.352;2022-12-05T12:35:26;97648.72;;;3.04;75.47
74675;BME280;63200;48.810;12.352;2022-12-05T12:40:46;97676.47;;;3.09;75.87
74675;BME280;63200;48.810;12.352;2022-12-05T12:43:46;97673.66;;;3.04;75.88
74675;BME280;63200;48.810;12.352;2022-12-05T12:46:37;97673.31;;;3.00;76.09
74675;BME280;63200;48.810;12.352;2022-12-05T12:51:55;97601.78;;;2.59;76.42
74675;BME280;63200;48.810;12.352;2022-12-05T12:57:10;97642.97;;;2.88;76.43
74675;BME280;63200;48.810;12.352;2022-12-05T13:02:35;97631.91;;;2.85;76.43
74675;BME280;63200;48.810;12.352;2022-12-05T13:05:08;97661.34;;;3.15;76.36
74675;BME280;63200;48.810;12.352;2022-12-05T13:07:51;97658.88;;;3.13;76.09
74675;BME280;63200;48.810;12.352;2022-12-05T13:10:37;97656.41;;;3.00;75.94
74675;BME280;63200;48.810;12.352;2022-12-05T13:13:05;97653.72;;;3.00;76.04
74675;BME280;63200;48.810;12.352;2022-12-05T13:15:36;97655.84;;;3.10;76.32
74675;BME280;63200;48.810;12.352;2022-12-05T13:18:06;97648.47;;;3.05;76.26
74675;BME280;63200;48.810;12.352;2022-12-05T13:20:38;97608.91;;;2.65;76.44
74675;BME280;63200;48.810;12.352;2022-12-05T13:23:04;97637.97;;;2.92;76.94
74675;BME280;63200;48.810;12.352;2022-12-05T13:25:33;97646.50;;;3.00;76.37
74675;BME280;63200;48.810;12.352;2022-12-05T13:28:05;97657.25;;;3.12;76.33
74675;BME280;63200;48.810;12.352;2022-12-05T13:30:32;97657.38;;;3.17;76.25
74675;BME280;63200;48.810;12.352;2022-12-05T13:33:18;97639.16;;;3.08;76.25
74675;BME280;63200;48.810;12.352;2022-12-05T13:35:54;97672.88;;;3.27;76.59
74675;BME280;63200;48.810;12.352;2022-12-05T13:38:39;97668.31;;;3.28;76.42
74675;BME280;63200;48.810;12.352;2022-12-05T13:41:44;97652.47;;;3.26;76.68
74675;BME280;63200;48.810;12.352;2022-12-05T13:44:41;97650.38;;;3.16;76.29
74675;BME280;63200;48.810;12.352;2022-12-05T13:50:00;97675.91;;;3.19;76.96
74675;BME280;63200;48.810;12.352;2022-12-05T13:52:38;97649.63;;;2.97;77.09
74675;BME280;63200;48.810;12.352;2022-12-05T13:55:22;97689.78;;;3.16;77.64
74675;BME280;63200;48.810;12.352;2022-12-05T13:57:52;97691.28;;;3.12;77.86
74675;BME280;63200;48.810;12.352;2022-12-05T14:00:27;97690.63;;;3.16;78.15
74675;BME280;63200;48.810;12.352;2022-12-05T14:03:04;97666.44;;;3.05;77.30
74675;BME280;63200;48.810;12.352;2022-12-05T14:05:39;97678.72;;;3.24;77.21
74675;BME280;63200;48.810;12.352;2022-12-05T14:15:39;97625.97;;;3.06;77.70
74675;BME280;63200;48.810;12.352;2022-12-05T14:18:14;97666.25;;;3.30;77.55
74675;BME280;63200;48.810;12.352;2022-12-05T14:36:51;97672.88;;;3.27;77.24
74675;BME280;63200;48.810;12.352;2022-12-05T14:39:34;97672.28;;;3.25;77.46
74675;BME280;63200;48.810;12.352;2022-12-05T14:42:02;97617.00;;;2.89;77.92
74675;BME280;63200;48.810;12.352;2022-12-05T14:44:28;97661.66;;;3.19;77.20
74675;BME280;63200;48.810;12.352;2022-12-05T14:46:58;97622.34;;;2.89;77.09
74675;BME280;63200;48.810;12.352;2022-12-05T14:49:59;97665.31;;;3.12;76.84
74675;BME280;63200;48.810;12.352;2022-12-05T14:52:29;97601.13;;;2.75;76.64
74675;BME280;63200;48.810;12.352;2022-12-05T14:55:02;97652.81;;;3.18;76.54
74675;BME280;63200;48.810;12.352;2022-12-05T14:57:31;97650.38;;;3.16;76.75
74675;BME280;63200;48.810;12.352;2022-12-05T15:00:03;97644.28;;;3.09;77.43
74675;BME280;63200;48.810;12.352;2022-12-05T15:02:41;97611.94;;;2.80;77.57
74675;BME280;63200;48.810;12.352;2022-12-05T15:05:31;97659.91;;;3.00;78.15
74675;BME280;63200;48.810;12.352;2022-12-05T15:07:57;97674.38;;;2.99;78.52
74675;BME280;63200;48.810;12.352;2022-12-05T15:10:36;97672.72;;;2.98;78.13
74675;BME280;63200;48.810;12.352;2022-12-05T15:13:15;97676.69;;;2.96;78.11
74675;BME280;63200;48.810;12.352;2022-12-05T15:15:44;97668.38;;;2.86;78.53
74675;BME280;63200;48.810;12.352;2022-12-05T15:20:59;97692.78;;;2.96;78.38
74675;BME280;63200;48.810;12.352;2022-12-05T15:26:05;97664.88;;;2.73;78.92
74675;BME280;63200;48.810;12.352;2022-12-05T15:28:38;97695.31;;;2.91;79.04
74675;BME280;63200;48.810;12.352;2022-12-05T15:31:05;97688.69;;;2.93;79.10
74675;BME280;63200;48.810;12.352;2022-12-05T15:33:32;97665.00;;;2.78;79.06
74675;BME280;63200;48.810;12.352;2022-12-05T15:35:58;97670.13;;;2.80;78.87
74675;BME280;63200;48.810;12.352;2022-12-05T15:38:28;97688.47;;;2.95;78.91
74675;BME280;63200;48.810;12.352;2022-12-05T15:40:55;97659.97;;;2.70;78.70